Information Last Ob Photographs Meteogram Network Table Neighbors Monthly Summaries Observation History Wind Roses Custom Wind Roses Data Calendar Satellite Cloud Product Download

17 April 2024 Observation History, [6R3] Cleveland, timezone: America/Chicago

Select Date: Time Order:

Show METARs   Show High Frequency MADIS

Previous Day
Time Wind
(mph)
Vis.
(mi.)
Sky Cond.
(100s ft)
Present Wx Temperature (ºF) Relative
Humidity
Pressure Snow
Depth
(in)
Precipitation (in.)
Air Dwpt Feels Like 6 hour altimeter
(in.)
sea level
(mb)
1 hr 3 hr 6 hr
Max.Min.
12:15 AMSSE 57 OVC010
757275 89% 29.940
K6R3 170515Z AUTO 16004KT 7SM OVC010 24/22 A2994 RMK AO2 T02400221
12:35 AMS 67 OVC010
757275 90% 29.940
K6R3 170535Z AUTO 17005KT 7SM OVC010 24/22 A2994 RMK AO2 T02400222
12:55 AMS 57 OVC010
757275 78 75 90% 29.940
K6R3 170555Z AUTO 17004KT 7SM OVC010 24/22 A2994 RMK AO2 T02400222 10255 20240 402910220
1:15 AMS 57 OVC010
757275 89% 29.940
K6R3 170615Z AUTO 17004KT 7SM OVC010 24/22 A2994 RMK AO2 T02410222
1:35 AMS 67 OVC010
757275 89% 29.940
K6R3 170635Z AUTO 17005KT 7SM OVC010 24/22 A2994 RMK AO2 T02410222
1:55 AMSSE 37 OVC010
757275 89% 29.930
K6R3 170655Z AUTO 16003KT 7SM OVC010 24/22 A2993 RMK AO2 T02410223
2:15 AMSSE 57 OVC008
757275 90% 29.940
K6R3 170715Z AUTO 16004KT 7SM OVC008 24/22 A2994 RMK AO2 T02410224
2:35 AMCalm7 OVC008
757275 91% 29.950
K6R3 170735Z AUTO 00000KT 7SM OVC008 24/23 A2995 RMK AO2 T02400225
2:55 AMCalm5 OVC008
-RA757275 93% 29.950
K6R3 170755Z AUTO 00000KT 5SM -RA OVC008 24/23 A2995 RMK AO2 T02370225
3:15 AMCalm4 OVC008
-RA747374 94% 29.950
K6R3 170815Z AUTO 00000KT 4SM -RA OVC008 24/23 A2995 RMK AO2 T02360226
3:35 AMCalm3 OVC006
-DZ747374 95% 29.950
K6R3 170835Z AUTO 00000KT 3SM -DZ OVC006 24/23 A2995 RMK AO2 T02350226
3:55 AMCalm3 OVC006
BR747374 95% 29.950
K6R3 170855Z AUTO 00000KT 3SM BR OVC006 24/23 A2995 RMK AO2 T02350226
4:15 AMCalm2.5 OVC006
BR747274 95% 29.950
K6R3 170915Z AUTO 00000KT 2 1/2SM BR OVC006 23/23 A2995 RMK AO2 T02330225
4:35 AMCalm2.5 OVC004
BR747274 95% 29.940
K6R3 170935Z AUTO 00000KT 2 1/2SM BR OVC004 23/23 A2994 RMK AO2 T02330225
4:55 AMCalm3 OVC004
BR747274 95% 29.950
K6R3 170955Z AUTO 00000KT 3SM BR OVC004 23/23 A2995 RMK AO2 T02330225
5:15 AMSSE 33 OVC004
BR747274 95% 29.950
K6R3 171015Z AUTO 16003KT 3SM BR OVC004 23/23 A2995 RMK AO2 T02330225
5:35 AMSSE 33 OVC004
BR747274 96% 29.950
K6R3 171035Z AUTO 15003KT 3SM BR OVC004 23/23 A2995 RMK AO2 T02320225
5:55 AMS 54 BKN004
OVC009
BR747274 96% 29.960
K6R3 171055Z AUTO 17004KT 4SM BR BKN004 OVC009 23/23 A2996 RMK AO2 T02320225
6:15 AMS 75 OVC006
BR747274 94% 29.970
K6R3 171115Z AUTO 17006KT 5SM BR OVC006 23/22 A2997 RMK AO2 T02320223
6:35 AMSSE 55 OVC008
BR747274 95% 29.960
K6R3 171135Z AUTO 16004KT 5SM BR OVC008 23/22 A2996 RMK AO2 T02310222
6:55 AMSSE 55 OVC008
BR747274 75 74 94% 29.960
K6R3 171155Z AUTO 16004KT 5SM BR OVC008 23/22 A2996 RMK AO2 T02320222 10241 20231
7:15 AMSSE 34 BKN006
OVC013
BR747274 94% 29.970
K6R3 171215Z AUTO 16003KT 4SM BR BKN006 OVC013 23/22 A2997 RMK AO2 T02320222
7:35 AMS 55 BKN006
BKN011
OVC018
BR747274 93% 29.970
K6R3 171235Z AUTO 17004KT 5SM BR BKN006 BKN011 OVC018 23/22 A2997 RMK AO2 T02330222
7:55 AMS 55 BKN008
OVC018
BR747274 93% 29.980
K6R3 171255Z AUTO 17004KT 5SM BR BKN008 OVC018 24/22 A2998 RMK AO2 T02350222
8:15 AMSSE 55 OVC008
BR747274 92% 29.980
K6R3 171315Z AUTO 16004KT 5SM BR OVC008 24/22 A2998 RMK AO2 T02360222
8:35 AMSSE 55 BKN008
BKN019
BR747274 92% 29.980
K6R3 171335Z AUTO 15004KT 5SM BR BKN008 BKN019 24/22 A2998 RMK AO2 T02360222
8:55 AMS 57 OVC008
757275 90% 29.990
K6R3 171355Z AUTO 17004KT 7SM OVC008 24/22 A2999 RMK AO2 T02390222
9:15 AMS 67 OVC008
757275 89% 29.990
K6R3 171415Z AUTO 17005KT 7SM OVC008 24/22 A2999 RMK AO2 T02410222
9:35 AMS 87 OVC010
767276 87% 29.990
K6R3 171435Z AUTO 17007KT 7SM OVC010 25/22 A2999 RMK AO2 T02460223
9:55 AMS 910 OVC010
777277 86% 29.990
K6R3 171455Z AUTO 17008KT 10SM OVC010 25/22 A2999 RMK AO2 T02480222
10:15 AMS 910 OVC010
777277 85% 300
K6R3 171515Z AUTO 17008KT 10SM OVC010 25/22 A3000 RMK AO2 T02500222
10:35 AMS 810 OVC012
777277 84% 300
K6R3 171535Z AUTO 17007KT 10SM OVC012 25/22 A3000 RMK AO2 T02510221
10:55 AMSSW 610 OVC012
787278 82% 30.010
K6R3 171555Z AUTO 19005KT 10SM OVC012 26/22 A3001 RMK AO2 T02550222
11:15 AMSSE 710 OVC014
787278 82% 30.010
K6R3 171615Z AUTO 16006KT 130V200 10SM OVC014 25/22 A3001 RMK AO2 T02530220
11:35 AMSSE 310 787278 83% 30.010
K6R3 171635Z AUTO 16003KT 10SM 25/22 A3001 RMK AO2 T02530221
11:55 AMSSE 610 787278 81% 30.010
K6R3 171655Z AUTO 16005KT 10SM 26/22 A3001 RMK AO2 T02550220
12:15 PMSSE 510 OVC016
787178 80% 30.010
K6R3 171715Z AUTO 16004KT 10SM OVC016 26/22 A3001 RMK AO2 T02550218
12:35 PMSSE 310 OVC018
787178 79% 30.010
K6R3 171735Z AUTO 16003KT 10SM OVC018 26/22 A3001 RMK AO2 T02550217

The IEM API webservice that provided data to this page. For more details, see documentation.

Data Notes

  • For recent years, this page also optionally shows observations from the MADIS High Frequency METAR dataset. This dataset had a problem with temperatures detailed here.